Qtas de Fajardo, Puerto Rico
Current Conditions -  °F | °C
As of 5:53 PM on Monday 22 Dec 2014 (Local Time) from TJNR Reporting Station
Clear Clear  
Wind Chill: 79°   Ceiling: Unl
Heat Index: 82°   Visibility: 10mi
Dew Point: 72°   Wind: 7mph
Humidity: 79%   Direction: 90°E
Pressure: 30.02"   Gusts: NA
Location:  18.3304°N, 65.6573°W
Report Text: TJNR 222153Z AUTO 09006KT 10SM CLR 26/22 A3002 RMK AO2 SLP164 T02610222
Loading
Personal Weather Stations






























Interactive Weather Map New forecast layout! Learn more

10-Day Weather Forecast

Advertisements
Track Severe Weather on mobile